createdAt,value
2023-01-31T00:00:27.993Z,101542.94
2023-01-31T00:02:55.259Z,101534.66
2023-01-31T00:05:22.512Z,101540.53
2023-01-31T00:07:49.333Z,101535.91
2023-01-31T00:10:16.561Z,101531.38
2023-01-31T00:12:43.336Z,101527.97
2023-01-31T00:15:10.549Z,101526.66
2023-01-31T00:17:37.412Z,101515.91
2023-01-31T00:20:04.733Z,101512.47
2023-01-31T00:22:31.517Z,101505.16
2023-01-31T00:24:58.263Z,101502.47
2023-01-31T00:27:25.060Z,101491.38
2023-01-31T00:29:51.800Z,101487.72
2023-01-31T00:32:18.880Z,101492.22
2023-01-31T00:34:45.703Z,101484.91
2023-01-31T00:37:12.617Z,101483.94
2023-01-31T00:39:39.384Z,101479.91
2023-01-31T00:42:06.163Z,101472.44
2023-01-31T00:44:32.950Z,101481.28
2023-01-31T00:46:59.732Z,101465.25
2023-01-31T00:49:26.615Z,101456.56
2023-01-31T00:51:53.512Z,101449.47
2023-01-31T00:54:20.303Z,101444.09
2023-01-31T00:56:47.278Z,101455.41
2023-01-31T00:59:14.043Z,101452.84
2023-01-31T01:01:41.296Z,101447.63
2023-01-31T01:04:08.138Z,101444.31
2023-01-31T01:06:35.744Z,101433.66
2023-01-31T01:09:02.904Z,101435.63
2023-01-31T01:11:32.337Z,101435.72
2023-01-31T01:14:01.063Z,101425.34
2023-01-31T01:16:36.824Z,101422.75
2023-01-31T01:19:12.549Z,101429.00
2023-01-31T01:21:40.885Z,101429.00
2023-01-31T01:24:14.111Z,101430.09
2023-01-31T01:26:41.704Z,101418.72
2023-01-31T01:29:09.041Z,101421.50
2023-01-31T01:31:37.849Z,101406.59
2023-01-31T01:34:08.321Z,101405.34
2023-01-31T01:36:36.683Z,101396.78
2023-01-31T01:39:07.488Z,101407.03
2023-01-31T01:41:34.323Z,101408.09
2023-01-31T01:44:04.353Z,101402.72
2023-01-31T01:46:42.762Z,101394.78
2023-01-31T01:49:18.765Z,101391.13
2023-01-31T01:51:49.441Z,101387.25
2023-01-31T01:54:22.776Z,101387.75
2023-01-31T01:56:58.969Z,101368.97
2023-01-31T01:59:34.077Z,101363.34
2023-01-31T02:02:02.267Z,101363.50
2023-01-31T02:04:37.823Z,101356.91
2023-01-31T02:07:05.522Z,101355.28
2023-01-31T02:10:05.879Z,101345.75
2023-01-31T02:12:34.494Z,101342.84
2023-01-31T02:15:01.638Z,101354.13
2023-01-31T02:17:29.364Z,101341.44
2023-01-31T02:20:08.846Z,101342.28
2023-01-31T02:23:24.911Z,101332.28
2023-01-31T02:26:10.084Z,101344.75
2023-01-31T02:29:33.538Z,101353.28
2023-01-31T02:32:34.591Z,101346.09
2023-01-31T02:35:41.820Z,101349.16
2023-01-31T02:38:35.844Z,101336.34
2023-01-31T02:41:11.713Z,101339.66
2023-01-31T02:44:22.442Z,101338.44
2023-01-31T02:47:14.152Z,101354.56
2023-01-31T02:49:56.293Z,101354.19
2023-01-31T02:52:43.504Z,101343.09
2023-01-31T02:55:36.838Z,101327.59
2023-01-31T02:58:09.193Z,101327.72
2023-01-31T03:00:39.422Z,101326.28
2023-01-31T03:03:20.275Z,101328.94
2023-01-31T03:06:23.723Z,101327.63
2023-01-31T03:09:25.181Z,101320.41
2023-01-31T03:12:10.556Z,101310.16
2023-01-31T03:14:52.574Z,101313.91
2023-01-31T03:17:53.190Z,101303.78
2023-01-31T03:20:38.293Z,101307.69
2023-01-31T03:23:11.728Z,101302.72
2023-01-31T03:25:39.691Z,101294.38
2023-01-31T03:28:14.017Z,101295.09
2023-01-31T03:31:00.428Z,101295.72
2023-01-31T03:33:33.899Z,101285.84
2023-01-31T03:36:23.880Z,101280.47
2023-01-31T03:39:06.047Z,101280.22
2023-01-31T03:42:08.067Z,101274.94
2023-01-31T03:45:18.112Z,101266.41
2023-01-31T03:47:49.375Z,101270.91
2023-01-31T03:50:43.038Z,101263.47
2023-01-31T03:53:29.308Z,101259.31
2023-01-31T03:56:07.326Z,101254.06
2023-01-31T03:58:41.637Z,101253.09
2023-01-31T04:01:11.342Z,101264.47
2023-01-31T04:03:49.289Z,101260.06
2023-01-31T04:06:17.238Z,101249.41
2023-01-31T04:08:44.106Z,101240.38
2023-01-31T04:11:14.936Z,101240.78
2023-01-31T04:13:43.078Z,101228.53
2023-01-31T04:16:09.893Z,101226.56
2023-01-31T04:18:38.609Z,101212.56
2023-01-31T04:21:05.916Z,101215.25
2023-01-31T04:23:33.287Z,101211.94
2023-01-31T04:26:00.239Z,101204.00
2023-01-31T04:28:27.110Z,101200.69
2023-01-31T04:30:57.918Z,101202.00
2023-01-31T04:33:24.884Z,101197.25
2023-01-31T04:35:52.404Z,101200.03
2023-01-31T04:38:19.508Z,101209.44
2023-01-31T04:40:46.330Z,101204.66
2023-01-31T04:43:13.538Z,101202.44
2023-01-31T04:45:40.310Z,101195.81
2023-01-31T04:48:07.771Z,101188.09
2023-01-31T04:50:35.035Z,101191.25
2023-01-31T04:53:01.978Z,101192.69
2023-01-31T04:55:29.142Z,101191.44
2023-01-31T04:57:55.906Z,101198.44
2023-01-31T05:00:22.999Z,101191.94
2023-01-31T05:02:50.516Z,101197.06
2023-01-31T05:05:17.714Z,101200.22
2023-01-31T05:07:45.463Z,101203.16
2023-01-31T05:10:12.961Z,101189.53
2023-01-31T05:12:40.299Z,101196.22
2023-01-31T05:15:07.946Z,101195.25
2023-01-31T05:17:34.918Z,101190.22
2023-01-31T05:20:01.688Z,101190.66
2023-01-31T05:22:28.499Z,101181.50
2023-01-31T05:24:57.472Z,101185.94
2023-01-31T05:27:25.675Z,101184.16
2023-01-31T05:29:52.899Z,101178.50
2023-01-31T05:32:20.047Z,101181.66
2023-01-31T05:34:46.836Z,101174.03
2023-01-31T05:37:13.655Z,101171.31
2023-01-31T05:39:40.648Z,101164.41
2023-01-31T05:42:07.433Z,101164.41
2023-01-31T05:44:34.494Z,101166.56
2023-01-31T05:47:01.522Z,101172.81
2023-01-31T05:49:33.521Z,101169.25
2023-01-31T05:52:01.900Z,101170.25
2023-01-31T05:54:29.151Z,101174.91
2023-01-31T05:56:56.105Z,101184.97
2023-01-31T05:59:23.238Z,101180.00
2023-01-31T06:01:50.105Z,101185.97
2023-01-31T06:04:17.233Z,101178.47
2023-01-31T06:06:45.543Z,101180.28
2023-01-31T06:09:12.359Z,101175.91
2023-01-31T06:11:39.205Z,101176.75
2023-01-31T06:14:06.826Z,101168.94
2023-01-31T06:16:33.888Z,101162.44
2023-01-31T06:19:02.013Z,101161.44
2023-01-31T06:21:29.366Z,101168.13
2023-01-31T06:23:56.377Z,101173.25
2023-01-31T06:26:24.502Z,101167.88
2023-01-31T06:28:51.552Z,101176.78
2023-01-31T06:31:19.246Z,101169.28
2023-01-31T06:33:48.022Z,101163.66
2023-01-31T06:36:18.904Z,101162.50
2023-01-31T06:38:51.014Z,101161.25
2023-01-31T06:41:19.520Z,101150.91
2023-01-31T06:43:46.343Z,101146.94
2023-01-31T06:46:13.170Z,101143.09
2023-01-31T06:48:40.377Z,101141.00
2023-01-31T06:51:07.252Z,101153.38
2023-01-31T06:53:34.085Z,101162.56
2023-01-31T06:56:01.193Z,101152.22
2023-01-31T06:58:28.436Z,101151.25
2023-01-31T07:00:55.237Z,101163.47
2023-01-31T07:03:22.077Z,101160.31
2023-01-31T07:05:48.908Z,101181.06
2023-01-31T07:08:16.117Z,101180.06
2023-01-31T07:10:43.006Z,101175.94
2023-01-31T07:13:09.835Z,101182.22
2023-01-31T07:15:36.655Z,101179.53
2023-01-31T07:18:03.485Z,101183.63
2023-01-31T07:20:30.427Z,101185.63
2023-01-31T07:22:58.551Z,101180.94
2023-01-31T07:25:27.334Z,101185.31
2023-01-31T07:27:54.142Z,101182.94
2023-01-31T07:30:21.099Z,101178.25
2023-01-31T07:32:47.920Z,101174.84
2023-01-31T07:35:14.711Z,101158.78
2023-01-31T07:37:43.638Z,101171.44
2023-01-31T07:40:15.445Z,101164.75
2023-01-31T07:42:42.632Z,101166.31
2023-01-31T07:45:23.371Z,101172.25
2023-01-31T07:47:51.600Z,101164.75
2023-01-31T07:50:20.024Z,101169.44
2023-01-31T07:52:49.420Z,101172.84
2023-01-31T07:55:16.381Z,101163.16
2023-01-31T07:57:43.167Z,101164.88
2023-01-31T08:00:31.062Z,101163.75
2023-01-31T08:03:16.358Z,101170.28
2023-01-31T08:05:47.687Z,101178.94
2023-01-31T08:08:14.803Z,101182.34
2023-01-31T08:10:41.899Z,101181.50
2023-01-31T08:13:11.193Z,101193.00
2023-01-31T08:15:37.972Z,101202.66
2023-01-31T08:18:06.414Z,101203.50
2023-01-31T08:20:33.935Z,101214.03
2023-01-31T08:23:00.720Z,101204.66
2023-01-31T08:25:32.250Z,101204.25
2023-01-31T08:28:00.533Z,101198.69
2023-01-31T08:30:28.449Z,101204.97
2023-01-31T08:32:56.489Z,101209.94
2023-01-31T08:35:23.294Z,101211.22
2023-01-31T08:37:50.063Z,101223.88
2023-01-31T08:40:17.872Z,101217.75
2023-01-31T08:42:44.640Z,101228.25
2023-01-31T08:45:11.661Z,101232.09
2023-01-31T08:47:39.050Z,101227.41
2023-01-31T08:50:13.140Z,101230.81
2023-01-31T08:52:54.262Z,101233.97
2023-01-31T08:55:22.751Z,101240.50
2023-01-31T08:57:59.419Z,101240.50
2023-01-31T09:00:28.922Z,101252.47
2023-01-31T09:03:00.779Z,101247.91
2023-01-31T09:05:31.118Z,101241.09
2023-01-31T09:07:58.004Z,101246.22
2023-01-31T09:10:24.959Z,101254.72
2023-01-31T09:12:51.828Z,101260.00
2023-01-31T09:15:19.201Z,101256.56
2023-01-31T09:17:46.193Z,101269.09
2023-01-31T09:20:13.106Z,101269.22
2023-01-31T09:22:40.107Z,101269.81
2023-01-31T09:25:08.541Z,101270.66
2023-01-31T09:27:38.624Z,101264.53
2023-01-31T09:30:08.305Z,101273.63
2023-01-31T09:32:35.697Z,101287.13
2023-01-31T09:35:02.701Z,101299.66
2023-01-31T09:37:31.304Z,101283.44
2023-01-31T09:39:58.367Z,101295.66
2023-01-31T09:42:33.520Z,101295.22
2023-01-31T09:45:12.584Z,101301.34
2023-01-31T09:47:48.507Z,101308.19
2023-01-31T09:50:33.658Z,101308.44
2023-01-31T09:53:00.762Z,101310.59
2023-01-31T09:55:36.529Z,101316.44
2023-01-31T09:58:19.664Z,101316.16
2023-01-31T10:01:01.717Z,101323.25
2023-01-31T10:03:55.949Z,101331.47
2023-01-31T10:06:30.711Z,101328.69
2023-01-31T10:09:36.022Z,101329.81
2023-01-31T10:12:18.861Z,101335.66
2023-01-31T10:14:58.007Z,101341.19
2023-01-31T10:17:42.380Z,101333.22
2023-01-31T10:20:21.710Z,101342.03
2023-01-31T10:23:07.494Z,101352.16
2023-01-31T10:25:46.683Z,101345.75
2023-01-31T10:28:43.795Z,101344.47
2023-01-31T10:32:05.851Z,101345.75
2023-01-31T10:34:39.476Z,101349.31
2023-01-31T10:37:19.307Z,101343.91
2023-01-31T10:39:54.315Z,101347.88
2023-01-31T10:42:33.439Z,101359.69
2023-01-31T10:45:09.153Z,101354.88
2023-01-31T10:48:16.234Z,101357.13
2023-01-31T10:51:01.074Z,101357.41
2023-01-31T10:53:58.343Z,101358.69
2023-01-31T10:57:03.388Z,101357.41
2023-01-31T10:59:45.244Z,101360.81
2023-01-31T11:02:19.369Z,101366.78
2023-01-31T11:04:46.173Z,101375.59
2023-01-31T11:07:13.440Z,101375.88
2023-01-31T11:09:44.107Z,101379.59
2023-01-31T11:12:11.030Z,101381.28
2023-01-31T11:14:37.885Z,101390.09
2023-01-31T11:17:24.781Z,101382.69
2023-01-31T11:19:55.278Z,101388.09
2023-01-31T11:22:27.855Z,101389.97
2023-01-31T11:24:56.459Z,101381.56
2023-01-31T11:27:33.779Z,101377.84
2023-01-31T11:30:00.860Z,101378.69
2023-01-31T11:32:35.967Z,101382.13
2023-01-31T11:35:13.428Z,101366.59
2023-01-31T11:38:02.648Z,101364.44
2023-01-31T11:40:36.158Z,101371.38
2023-01-31T11:43:07.549Z,101376.09
2023-01-31T11:45:39.266Z,101373.81
2023-01-31T11:48:22.044Z,101378.50
2023-01-31T11:51:03.169Z,101381.81
2023-01-31T11:53:55.005Z,101378.97
2023-01-31T11:56:31.761Z,101372.13
2023-01-31T11:59:04.313Z,101372.41
2023-01-31T12:01:31.334Z,101374.03
2023-01-31T12:04:04.334Z,101369.59
2023-01-31T12:06:40.460Z,101371.31
2023-01-31T12:09:23.951Z,101373.72
2023-01-31T12:12:07.708Z,101382.84
2023-01-31T12:14:41.604Z,101384.56
2023-01-31T12:17:16.042Z,101393.13
2023-01-31T12:20:30.425Z,101389.41
2023-01-31T12:23:23.403Z,101393.13
2023-01-31T12:26:04.639Z,101389.81
2023-01-31T12:29:16.009Z,101397.22
2023-01-31T12:32:10.061Z,101392.66
2023-01-31T12:35:21.027Z,101394.94
2023-01-31T12:38:13.490Z,101398.06
2023-01-31T12:41:21.720Z,101395.66
2023-01-31T12:44:17.969Z,101389.25
2023-01-31T12:47:29.559Z,101385.84
2023-01-31T12:50:42.964Z,101393.13
2023-01-31T12:53:51.508Z,101382.69
2023-01-31T12:56:24.673Z,101373.31
2023-01-31T12:59:16.286Z,101375.75
2023-01-31T13:02:03.661Z,101370.19
2023-01-31T13:04:45.771Z,101371.31
2023-01-31T13:07:43.681Z,101370.41
2023-01-31T13:10:45.439Z,101374.25
2023-01-31T13:13:25.133Z,101385.50
2023-01-31T13:16:00.107Z,101381.94
2023-01-31T13:18:27.501Z,101386.13
2023-01-31T13:21:02.613Z,101380.72
2023-01-31T13:23:44.444Z,101379.13
2023-01-31T13:26:26.868Z,101384.41
2023-01-31T13:29:00.976Z,101383.00
2023-01-31T13:31:36.293Z,101382.16
2023-01-31T13:34:29.472Z,101375.44
2023-01-31T13:37:04.897Z,101370.47
2023-01-31T13:39:43.842Z,101363.66
2023-01-31T13:42:15.698Z,101368.22
2023-01-31T13:44:44.036Z,101360.50
2023-01-31T13:47:39.495Z,101364.50
2023-01-31T13:50:28.165Z,101355.97
2023-01-31T13:52:57.615Z,101357.09
2023-01-31T13:55:36.871Z,101352.25
2023-01-31T13:58:17.908Z,101367.91
2023-01-31T14:00:51.101Z,101373.63
2023-01-31T14:03:20.886Z,101368.47
2023-01-31T14:05:55.623Z,101370.47
2023-01-31T14:08:37.564Z,101357.38
2023-01-31T14:11:25.485Z,101367.16
2023-01-31T14:14:12.655Z,101377.03
2023-01-31T14:16:46.121Z,101382.28
2023-01-31T14:19:19.051Z,101377.59
2023-01-31T14:21:50.801Z,101371.63
2023-01-31T14:24:53.322Z,101379.59
2023-01-31T14:27:33.682Z,101374.19
2023-01-31T14:30:06.355Z,101365.91
2023-01-31T14:32:42.157Z,101374.34
2023-01-31T14:35:14.786Z,101374.59
2023-01-31T14:38:15.377Z,101373.31
2023-01-31T14:41:18.990Z,101368.06
2023-01-31T14:44:06.969Z,101366.75
2023-01-31T14:47:07.748Z,101364.03
2023-01-31T14:49:43.653Z,101353.09
2023-01-31T14:52:42.708Z,101352.91
2023-01-31T14:55:35.669Z,101347.09
2023-01-31T14:58:05.587Z,101359.50
2023-01-31T15:00:37.173Z,101345.97
2023-01-31T15:03:19.362Z,101346.81
2023-01-31T15:05:52.049Z,101359.06
2023-01-31T15:08:19.913Z,101350.84
2023-01-31T15:11:03.384Z,101351.41
2023-01-31T15:13:39.665Z,101355.97
2023-01-31T15:16:24.316Z,101362.97
2023-01-31T15:19:19.460Z,101356.56
2023-01-31T15:21:55.659Z,101367.94
2023-01-31T15:24:32.211Z,101354.25
2023-01-31T15:27:01.483Z,101365.63
2023-01-31T15:29:37.327Z,101365.47
2023-01-31T15:32:24.318Z,101360.47
2023-01-31T15:35:07.951Z,101366.13
2023-01-31T15:37:37.064Z,101363.56
2023-01-31T15:40:21.135Z,101357.75
2023-01-31T15:42:48.033Z,101363.97
2023-01-31T15:45:17.868Z,101367.94
2023-01-31T15:48:00.088Z,101370.72
2023-01-31T15:50:30.932Z,101376.72
2023-01-31T15:53:04.143Z,101366.56
2023-01-31T15:55:32.048Z,101372.97
2023-01-31T15:58:02.292Z,101360.03
2023-01-31T16:00:37.079Z,101363.97
2023-01-31T16:03:08.075Z,101365.66
2023-01-31T16:05:40.054Z,101364.22
2023-01-31T16:08:21.980Z,101364.59
2023-01-31T16:10:49.889Z,101361.47
2023-01-31T16:13:17.416Z,101363.00
2023-01-31T16:15:44.502Z,101375.75
2023-01-31T16:18:13.229Z,101368.72
2023-01-31T16:20:41.598Z,101383.63
2023-01-31T16:23:33.824Z,101374.50
2023-01-31T16:26:09.188Z,101377.00
2023-01-31T16:28:45.281Z,101376.56
2023-01-31T16:31:18.618Z,101385.34
2023-01-31T16:33:53.533Z,101383.75
2023-01-31T16:36:30.754Z,101390.41
2023-01-31T16:39:05.051Z,101394.34
2023-01-31T16:41:53.300Z,101390.75
2023-01-31T16:44:23.130Z,101387.31
2023-01-31T16:46:51.323Z,101381.22
2023-01-31T16:49:20.918Z,101384.06
2023-01-31T16:51:49.667Z,101388.84
2023-01-31T16:54:28.528Z,101387.41
2023-01-31T16:57:01.476Z,101386.94
2023-01-31T16:59:34.693Z,101386.44
2023-01-31T17:02:18.591Z,101390.13
2023-01-31T17:04:48.127Z,101381.34
2023-01-31T17:07:31.754Z,101370.06
2023-01-31T17:10:04.245Z,101383.78
2023-01-31T17:12:35.186Z,101378.66
2023-01-31T17:15:04.009Z,101372.06
2023-01-31T17:17:35.240Z,101372.91
2023-01-31T17:20:02.038Z,101382.25
2023-01-31T17:22:29.069Z,101369.75
2023-01-31T17:24:55.972Z,101378.34
2023-01-31T17:27:23.234Z,101369.53
2023-01-31T17:29:50.410Z,101377.72
2023-01-31T17:32:20.872Z,101373.56
2023-01-31T17:34:51.000Z,101377.47
2023-01-31T17:37:23.590Z,101368.66
2023-01-31T17:39:57.256Z,101371.09
2023-01-31T17:42:24.069Z,101368.19
2023-01-31T17:44:50.878Z,101362.09
2023-01-31T17:47:17.996Z,101362.81
2023-01-31T17:49:45.339Z,101355.97
2023-01-31T17:52:12.452Z,101353.06
2023-01-31T17:54:39.284Z,101356.94
2023-01-31T17:57:06.108Z,101352.06
2023-01-31T17:59:33.068Z,101343.88
2023-01-31T18:02:00.733Z,101336.44
2023-01-31T18:04:27.617Z,101328.47
2023-01-31T18:06:56.312Z,101331.91
2023-01-31T18:09:23.140Z,101316.16
2023-01-31T18:11:49.913Z,101316.63
2023-01-31T18:14:16.953Z,101322.00
2023-01-31T18:16:43.766Z,101328.38
2023-01-31T18:19:12.100Z,101321.03
2023-01-31T18:21:43.970Z,101325.28
2023-01-31T18:24:13.880Z,101317.22
2023-01-31T18:26:40.781Z,101313.19
2023-01-31T18:29:07.710Z,101308.19
2023-01-31T18:31:34.664Z,101301.59
2023-01-31T18:34:01.496Z,101316.75
2023-01-31T18:36:28.308Z,101327.25
2023-01-31T18:38:55.253Z,101310.16
2023-01-31T18:41:22.118Z,101315.97
2023-01-31T18:43:49.661Z,101313.19
2023-01-31T18:46:17.386Z,101316.72
2023-01-31T18:48:44.253Z,101321.13
2023-01-31T18:51:13.783Z,101330.03
2023-01-31T18:53:49.603Z,101318.31
2023-01-31T18:56:19.749Z,101329.91
2023-01-31T18:58:49.450Z,101313.19
2023-01-31T19:01:20.740Z,101321.50
2023-01-31T19:03:50.379Z,101321.25
2023-01-31T19:06:24.354Z,101328.59
2023-01-31T19:08:53.395Z,101328.47
2023-01-31T19:11:24.460Z,101325.16
2023-01-31T19:13:52.236Z,101323.59
2023-01-31T19:16:25.013Z,101317.50
2023-01-31T19:18:52.168Z,101327.63
2023-01-31T19:21:26.135Z,101321.53
2023-01-31T19:23:57.278Z,101324.44
2023-01-31T19:26:24.777Z,101327.63
2023-01-31T19:28:52.123Z,101318.34
2023-01-31T19:31:22.458Z,101318.84
2023-01-31T19:33:51.803Z,101320.06
2023-01-31T19:36:23.879Z,101314.81
2023-01-31T19:38:51.459Z,101311.84
2023-01-31T19:41:22.237Z,101316.50
2023-01-31T19:43:55.128Z,101302.09
2023-01-31T19:46:25.140Z,101310.03
2023-01-31T19:48:51.953Z,101307.47
2023-01-31T19:51:20.948Z,101305.28
2023-01-31T19:53:49.168Z,101311.72
2023-01-31T19:56:17.117Z,101302.94
2023-01-31T19:58:44.169Z,101308.81
2023-01-31T20:01:16.170Z,101307.69
2023-01-31T20:03:44.148Z,101307.97
2023-01-31T20:06:15.101Z,101307.56
2023-01-31T20:08:42.413Z,101312.09
2023-01-31T20:11:11.467Z,101319.44
2023-01-31T20:13:38.534Z,101323.19
2023-01-31T20:16:11.993Z,101319.03
2023-01-31T20:18:41.180Z,101319.03
2023-01-31T20:21:14.519Z,101316.47
2023-01-31T20:23:41.810Z,101313.88
2023-01-31T20:26:11.764Z,101315.63
2023-01-31T20:28:39.998Z,101325.00
2023-01-31T20:31:10.725Z,101317.06
2023-01-31T20:33:38.651Z,101318.28
2023-01-31T20:36:06.483Z,101321.06
2023-01-31T20:38:33.629Z,101317.44
2023-01-31T20:41:00.779Z,101319.50
2023-01-31T20:43:27.623Z,101315.97
2023-01-31T20:46:03.520Z,101309.50
2023-01-31T20:48:30.344Z,101305.34
2023-01-31T20:50:58.481Z,101306.56
2023-01-31T20:53:28.344Z,101316.06
2023-01-31T20:56:05.959Z,101310.81
2023-01-31T20:58:35.960Z,101320.94
2023-01-31T21:01:06.227Z,101319.72
2023-01-31T21:03:34.305Z,101321.56
2023-01-31T21:06:02.560Z,101327.78
2023-01-31T21:08:31.721Z,101321.94
2023-01-31T21:10:59.601Z,101325.69
2023-01-31T21:13:31.770Z,101326.78
2023-01-31T21:16:03.496Z,101325.53
2023-01-31T21:18:34.759Z,101318.44
2023-01-31T21:21:09.240Z,101312.47
2023-01-31T21:23:37.848Z,101327.97
2023-01-31T21:26:07.483Z,101322.69
2023-01-31T21:28:35.475Z,101322.47
2023-01-31T21:31:06.514Z,101323.66
2023-01-31T21:33:33.722Z,101332.19
2023-01-31T21:36:08.799Z,101336.09
2023-01-31T21:38:35.949Z,101331.03
2023-01-31T21:41:21.918Z,101334.09
2023-01-31T21:43:48.690Z,101332.81
2023-01-31T21:46:15.649Z,101339.59
2023-01-31T21:48:42.796Z,101346.28
2023-01-31T21:51:15.555Z,101337.75
2023-01-31T21:53:42.862Z,101341.63
2023-01-31T21:56:19.342Z,101329.38
2023-01-31T21:58:46.741Z,101325.00
2023-01-31T22:01:21.035Z,101326.94
2023-01-31T22:03:50.398Z,101329.53
2023-01-31T22:06:22.799Z,101331.00
2023-01-31T22:08:55.748Z,101324.53
2023-01-31T22:11:23.625Z,101333.34
2023-01-31T22:13:55.550Z,101338.53
2023-01-31T22:16:23.212Z,101328.44
2023-01-31T22:18:50.266Z,101326.13
2023-01-31T22:21:25.007Z,101336.41
2023-01-31T22:23:55.565Z,101324.13
2023-01-31T22:26:35.985Z,101322.81
2023-01-31T22:29:06.713Z,101328.19
2023-01-31T22:31:34.275Z,101316.34
2023-01-31T22:34:02.404Z,101311.22
2023-01-31T22:36:29.567Z,101328.41
2023-01-31T22:38:56.384Z,101329.63
2023-01-31T22:41:23.687Z,101328.13
2023-01-31T22:43:51.960Z,101333.13
2023-01-31T22:46:23.531Z,101333.44
2023-01-31T22:48:51.382Z,101344.41
2023-01-31T22:51:24.878Z,101354.41
2023-01-31T22:53:51.768Z,101344.66
2023-01-31T22:56:22.128Z,101343.44
2023-01-31T22:58:49.440Z,101353.22
2023-01-31T23:01:19.877Z,101359.81
2023-01-31T23:03:47.797Z,101348.66
2023-01-31T23:06:17.180Z,101341.22
2023-01-31T23:08:45.330Z,101359.44
2023-01-31T23:11:15.747Z,101357.59
2023-01-31T23:13:43.835Z,101345.66
2023-01-31T23:16:19.855Z,101346.00
2023-01-31T23:18:47.330Z,101320.38
2023-01-31T23:21:19.159Z,101316.50
2023-01-31T23:23:46.609Z,101329.78
2023-01-31T23:26:14.065Z,101326.25
2023-01-31T23:28:41.129Z,101330.53
2023-01-31T23:31:08.585Z,101330.41
2023-01-31T23:33:35.615Z,101324.06
2023-01-31T23:36:02.826Z,101325.53
2023-01-31T23:38:29.630Z,101327.25
2023-01-31T23:40:56.480Z,101311.63
2023-01-31T23:43:23.906Z,101311.75
2023-01-31T23:45:50.770Z,101318.72
2023-01-31T23:48:18.161Z,101305.31
2023-01-31T23:50:45.072Z,101300.91
2023-01-31T23:53:11.866Z,101314.44
2023-01-31T23:55:38.672Z,101304.56
2023-01-31T23:58:05.729Z,101304.47
